NEODyS-2

Near Earth Objects - Dynamic Site
NEODyS ∴ Observatories ∴ Site 691 ∴ Obs & residuals
Contact »
691  ▹ 
OBSERVATIONS AND RESIDUALS

691-Steward Observatory, Kitt Peak-Spacewatch

Detections | Residuals | Detections & Residuals

[1-200] [201-400] [401-600] [601-800] [801-1000] [1001-1200] [1201-1400] [1401-1600] [1601-1800] [1801-2000] [2001-2200] [2201-2400] [2401-2600] [2601-2800] [2801-3000] [3001-3200] [3201-3400] [3401-3600] [3601-3800] [3801-4000] [4001-4200] [4201-4400] [4401-4600] [4601-4800] [4801-5000] [5001-5200] [5201-5400] [5401-5600] [5601-5800] [5801-6000] [6001-6200] [6201-6400] [6401-6600] [6601-6800] [6801-7000] [7001-7200] [7201-7400] [7401-7600] [7601-7800] [7801-8000] [8001-8200] [8201-8400] [8401-8600] [8601-8800] [8801-9000] [9001-9200] [9201-9400] [9401-9600] [9601-9800] [9801-10000] [10001-10200] [10201-10400] [10401-10600] [10601-10800] [10801-11000] [11001-11200] [11201-11400] [11401-11600] [11601-11800] [11801-12000] [12001-12200] [12201-12400] [12401-12600] [12601-12800] [12801-13000] [13001-13200] [13201-13400] [13401-13600] [13601-13800] [13801-14000] [14001-14200] [14201-14400] [14401-14600] [14601-14800] [14801-15000] [15001-15200] [15201-15400] [15401-15600] [15601-15800] [15801-16000] [16001-16200] [16201-16400] [16401-16600] [16601-16800] [16801-17000] [17001-17200] [17201-17400] [17401-17600] [17601-17800] [17801-18000] [18001-18200] [18201-18400] [18401-18600] [18601-18800] [18801-19000] [19001-19200] [19201-19400] [19401-19600] [19601-19800] [19801-20000] [20001-20200] [20201-20400] [20401-20600] [20601-20800] [20801-21000] [21001-21200] [21201-21400] [21401-21600] [21601-21800] [21801-22000] [22001-22200] [22201-22400] [22401-22600] [22601-22800] [22801-23000] [23001-23200] [23201-23400] [23401-23600] [23601-23800] [23801-24000] [24001-24200] [24201-24400] [24401-24600] [24601-24800] [24801-25000] [25001-25200] [25201-25400] [25401-25600] [25601-25800] [25801-26000] [26001-26200] [26201-26400] [26401-26600] [26601-26800] [26801-27000] [27001-27200] [27201-27400] [27401-27600] [27601-27800] [27801-28000] [28001-28200] [28201-28400] [28401-28600] [28601-28800] [28801-29000] [29001-29200] [29201-29400] [29401-29600] [29601-29800] [29801-30000] [30001-30200] [30201-30400] [30401-30600] [30601-30800] [30801-31000] [31001-31200] [31201-31400] [31401-31600] [31601-31800] [31801-32000] [32001-32200] [32201-32400] [32401-32600] [32601-32800] [32801-33000] [33001-33200] [33201-33400] [33401-33600] [33601-33800] [33801-34000] [34001-34200] [34201-34400] [34401-34600] [34601-34800] [34801-35000] [35001-35200] [35201-35400] [35401-35600] [35601-35800] [35801-36000] [36001-36200] [36201-36400] [36401-36600] [36601-36800] [36801-37000] [37001-37200] [37201-37400] [37401-37600] [37601-37800] [37801-38000] [38001-38200] [38201-38400] [38401-38600] [38601-38800] [38801-39000] [39001-39200] [39201-39400] [39401-39600] [39601-39800] [39801-40000] [40001-40200] [40201-40400] [40401-40600] [40601-40800] [40801-41000] [41001-41200] [41201-41400] [41401-41600] [41601-41800] [41801-42000] [42001-42200] [42201-42400] [42401-42600] [42601-42800] [42801-43000] [43001-43200] [43201-43400] [43401-43600] [43601-43800] [43801-44000] [44001-44200] [44201-44400] [44401-44600] [44601-44800] [44801-45000] [45001-45200] [45201-45400] [45401-45600] [45601-45800] [45801-46000] [46001-46200] [46201-46400] [46401-46600] [46601-46800] [46801-47000] [47001-47200] [47201-47400] [47401-47600] [47601-47800] [47801-48000] [48001-48200] [48201-48400] [48401-48600] [48601-48800] [48801-49000] [49001-49200] [49201-49400] [49401-49600] [49601-49800] [49801-50000] [50001-50200] [50201-50388]

Designation T Tech N Date Right Ascension Declination Apparent Magnitude Star Catalog Site code χ Used A Used M
yr-mo-day precision hr:min:sec precision rms F bias residual deg min sec precision rms F bias residual mag/col rms residual
1991AQ O C H 2006-11-21.16679 1.000E-05 04:07:11.770 1.500E-01 0.500 F 0.271 0.621 +25° 31' 43.40" 1.000E-01 0.500 F 0.358 -0.622 21.6 V 0.70 -0.03 c 691 1.76 Yes Yes
2006BG O C H 2006-11-21.18171 1.000E-05 03:57:30.100 1.500E-01 0.500 F 0.053 1.784 +25° 45' 24.50" 1.000E-01 0.500 F 0.377 -0.190 c 691 3.58 No No
1991AQ O C H 2006-11-21.18415 1.000E-05 04:07:10.320 1.500E-01 0.500 F 0.271 0.446 +25° 31' 40.80" 1.000E-01 0.500 F 0.358 -0.104 21.6 V 0.70 -0.03 c 691 0.92 Yes Yes
2006BG O C H 2006-11-21.19906 1.000E-05 03:57:27.990 1.500E-01 0.500 F 0.053 0.465 +25° 45' 18.40" 1.000E-01 0.500 F 0.377 0.377 21.5 V 0.70 -0.23 c 691 1.21 Yes Yes
1991AQ O C H 2006-11-21.20150 1.000E-05 04:07:08.850 1.500E-01 0.500 F 0.271 0.021 +25° 31' 37.30" 1.000E-01 0.500 F 0.358 -0.474 c 691 0.95 Yes No
2006WX3 O C 2006-11-21.21659 1.000E-05 04:20:27.740 1.500E-01 0.500 F -0.073 0.062 +29° 34' 14.20" 1.000E-01 0.500 F 0.196 -0.040 20.1 V 0.70 0.63 c 691 0.16 Yes Yes
2006WX3 O C 2006-11-21.23392 1.000E-05 04:20:28.750 1.500E-01 0.500 F -0.073 -0.123 +29° 32' 19.90" 1.000E-01 0.500 F 0.196 -0.318 19.4 V 0.70 -0.07 c 691 0.73 Yes Yes
2006WX3 O C 2006-11-21.25127 1.000E-05 04:20:29.770 1.500E-01 0.500 F -0.073 0.121 +29° 30' 26.00" 1.000E-01 0.500 F 0.196 0.022 19.6 V 0.70 0.13 c 691 0.26 Yes Yes
2006UM O C t 2006-11-21.29841 1.000E-05 05:01:17.750 1.500E-01 0.500 F 0.058 0.173 +29° 54' 24.70" 1.000E-01 0.500 F 0.177 -0.790 16.9 V 0.70 0.70 c 691 1.62 Yes Yes
2006UM O C H 2006-11-21.31575 1.000E-05 05:01:19.420 1.500E-01 0.500 F 0.058 0.316 +29° 56' 09.40" 1.000E-01 0.500 F 0.177 -1.812 c 691 3.66 No No
2006UM O C H 2006-11-21.33308 1.000E-05 05:01:21.080 1.500E-01 0.500 F 0.058 0.422 +29° 57' 55.20" 1.000E-01 0.500 F 0.177 -1.550 c 691 3.20 No No
Anteros O C 2006-11-21.40144 1.000E-05 05:44:33.730 1.500E-01 0.500 F 0.041 0.218 +21° 49' 20.90" 1.000E-01 0.500 F 0.256 -0.148 17.4 V 0.70 0.20 c 691 0.53 Yes Yes
2006WN1 O C 2006-11-21.41137 1.000E-05 05:45:28.000 1.500E-01 0.500 F 0.041 0.024 +21° 36' 34.70" 1.000E-01 0.500 F 0.256 -0.285 20.7 V 0.70 0.02 c 691 0.57 Yes Yes
Anteros O C 2006-11-21.41882 1.000E-05 05:44:32.320 1.500E-01 0.500 F 0.041 -0.009 +21° 49' 12.00" 1.000E-01 0.500 F 0.256 0.011 17.5 V 0.70 0.30 c 691 0.03 Yes Yes
2006WN1 O C 2006-11-21.42875 1.000E-05 05:45:26.430 1.500E-01 0.500 F 0.041 -0.009 +21° 36' 30.60" 1.000E-01 0.500 F 0.256 -0.044 20.6 V 0.70 -0.08 c 691 0.09 Yes Yes
Anteros O C 2006-11-21.43621 1.000E-05 05:44:30.940 1.500E-01 0.500 F 0.041 0.181 +21° 49' 02.70" 1.000E-01 0.500 F 0.256 -0.182 17.3 V 0.70 0.10 c 691 0.51 Yes Yes
2006WN1 O C 2006-11-21.44614 1.000E-05 05:45:24.870 1.500E-01 0.500 F 0.041 0.087 +21° 36' 26.20" 1.000E-01 0.500 F 0.256 -0.064 20.5 V 0.70 -0.18 c 691 0.22 Yes Yes
1997AQ18 O C H 2006-11-21.50701 1.000E-05 10:47:22.160 1.500E-01 0.500 F 0.488 0.534 +06° 27' 11.30" 1.000E-01 0.500 F 0.392 -0.296 21.3 V 0.70 -0.05 c 691 1.22 Yes Yes
1997AQ18 O C H 2006-11-21.51945 1.000E-05 10:47:22.930 1.500E-01 0.500 F 0.488 -0.106 +06° 26' 58.80" 1.000E-01 0.500 F 0.392 -0.234 21.1 V 0.70 -0.25 c 691 0.51 Yes Yes
1997AQ18 O C H 2006-11-21.53195 1.000E-05 10:47:23.760 1.500E-01 0.500 F 0.488 0.110 +06° 26' 46.40" 1.000E-01 0.500 F 0.392 -0.009 21.2 V 0.70 -0.15 c 691 0.22 Yes Yes
2000XG47 O C 2006-11-22.07428 1.000E-05 01:52:23.690 1.500E-01 0.500 F -0.213 0.017 +09° 40' 57.80" 1.000E-01 0.500 F 0.313 -0.102 20.3 V 0.70 0.49 c 691 0.21 Yes Yes
2000XG47 O C 2006-11-22.08710 1.000E-05 01:52:22.530 1.500E-01 0.500 F -0.213 0.081 +09° 40' 59.50" 1.000E-01 0.500 F 0.313 -0.183 20.3 V 0.70 0.49 c 691 0.40 Yes Yes
2000XG47 O C 2006-11-22.09992 1.000E-05 01:52:21.350 1.500E-01 0.500 F -0.213 -0.128 +09° 41' 01.30" 1.000E-01 0.500 F 0.313 -0.160 20.3 V 0.70 0.49 c 691 0.41 Yes Yes
2006WH1 O C 2006-11-22.15886 1.000E-05 04:07:30.600 1.500E-01 0.500 F -0.067 0.184 +21° 05' 30.20" 1.000E-01 0.500 F 0.300 0.135 18.2 V 0.70 0.41 c 691 0.45 Yes Yes
1999JT3 O C 2006-11-22.15886 1.000E-05 04:07:40.200 1.500E-01 0.500 F -0.055 -0.174 +20° 06' 59.40" 1.000E-01 0.500 F 0.340 -0.079 19.4 V 0.70 0.15 c 691 0.38 Yes Yes
2006VT2 O C 2006-11-22.16633 1.000E-05 03:47:59.860 1.500E-01 0.500 F -0.017 -0.119 +19° 51' 27.80" 1.000E-01 0.500 F 0.386 -0.037 18.9 V 0.70 0.30 c 691 0.25 Yes Yes
1999JT3 O C 2006-11-22.17628 1.000E-05 04:07:38.760 1.500E-01 0.500 F -0.055 0.006 +20° 06' 59.50" 1.000E-01 0.500 F 0.340 0.034 20.0 V 0.70 0.75 c 691 0.07 Yes Yes
2006WH1 O C 2006-11-22.17628 1.000E-05 04:07:29.540 1.500E-01 0.500 F -0.067 0.130 +21° 05' 17.00" 1.000E-01 0.500 F 0.300 0.103 18.2 V 0.70 0.41 c 691 0.33 Yes Yes
2006VT2 O C 2006-11-22.18374 1.000E-05 03:47:55.650 1.500E-01 0.500 F -0.017 -0.057 +19° 51' 37.10" 1.000E-01 0.500 F 0.386 -0.035 18.9 V 0.70 0.30 c 691 0.13 Yes Yes
2006WH1 O C 2006-11-22.19368 1.000E-05 04:07:28.470 1.500E-01 0.500 F -0.067 0.240 +21° 05' 03.70" 1.000E-01 0.500 F 0.300 0.067 18.2 V 0.70 0.41 c 691 0.49 Yes Yes
1999JT3 O C 2006-11-22.19368 1.000E-05 04:07:37.310 1.500E-01 0.500 F -0.055 0.065 +20° 06' 59.40" 1.000E-01 0.500 F 0.340 -0.038 19.5 V 0.70 0.25 c 691 0.15 Yes Yes
2006VT2 O C 2006-11-22.20114 1.000E-05 03:47:51.430 1.500E-01 0.500 F -0.017 -0.062 +19° 51' 46.40" 1.000E-01 0.500 F 0.386 0.009 18.9 V 0.70 0.30 c 691 0.13 Yes Yes
2000WN63 O C H 2006-11-22.20847 1.000E-05 04:20:25.280 1.500E-01 0.500 F -0.124 -0.393 +25° 09' 36.30" 1.000E-01 0.500 F 0.237 -0.512 20.7 V 0.70 0.31 c 691 1.30 Yes Yes
2006UP O C 2006-11-22.21090 1.000E-05 04:28:22.460 1.500E-01 0.500 F 0.001 0.274 +25° 08' 06.50" 1.000E-01 0.500 F 0.251 0.033 20.5 V 0.70 0.27 c 691 0.56 Yes Yes
2000WN63 O C H 2006-11-22.22587 1.000E-05 04:20:22.980 1.500E-01 0.500 F -0.124 0.558 +25° 09' 41.70" 1.000E-01 0.500 F 0.237 -0.717 c 691 1.82 Yes No
2006UP O C 2006-11-22.22830 1.000E-05 04:28:21.950 1.500E-01 0.500 F 0.001 -0.033 +25° 08' 18.60" 1.000E-01 0.500 F 0.251 0.019 20.4 V 0.70 0.17 c 691 0.08 Yes Yes
2006UP O C 2006-11-22.24570 1.000E-05 04:28:21.460 1.500E-01 0.500 F 0.001 0.222 +25° 08' 30.50" 1.000E-01 0.500 F 0.251 -0.013 20.5 V 0.70 0.27 c 691 0.45 Yes Yes
1994XG O C H 2006-11-22.27050 1.000E-05 05:07:13.490 1.500E-01 0.500 F 0.080 1.247 +16° 30' 32.50" 1.000E-01 0.500 F 0.187 1.272 c 691 3.52 No No
1994LW O C 2006-11-22.27548 1.000E-05 04:49:02.010 1.500E-01 0.500 F -0.016 -0.092 +16° 56' 46.10" 1.000E-01 0.500 F -0.009 -0.101 21.4 V 0.70 -0.30 c 691 0.27 Yes Yes
1994XG O C H 2006-11-22.28787 1.000E-05 05:07:11.600 1.500E-01 0.500 F 0.080 0.712 +16° 30' 22.70" 1.000E-01 0.500 F 0.187 -0.208 21.6 V 0.70 0.43 c 691 1.50 Yes Yes
1994LW O C 2006-11-22.29285 1.000E-05 04:49:00.910 1.500E-01 0.500 F -0.016 -0.590 +16° 56' 41.30" 1.000E-01 0.500 F -0.009 0.931 21.4 V 0.70 -0.30 c 691 2.21 Yes Yes
1994XG O C H 2006-11-22.30518 1.000E-05 05:07:09.700 1.500E-01 0.500 F 0.080 -0.024 +16° 30' 14.50" 1.000E-01 0.500 F 0.187 -0.096 21.4 V 0.70 0.23 c 691 0.20 Yes Yes
1994LW O C 2006-11-22.31015 1.000E-05 04:48:59.900 1.500E-01 0.500 F -0.016 0.153 +16° 56' 34.60" 1.000E-01 0.500 F -0.009 0.050 21.4 V 0.70 -0.30 c 691 0.32 Yes Yes
2001XV4 O C H 2006-11-22.37985 1.000E-05 05:49:06.940 1.500E-01 0.500 F 0.066 0.074 +28° 46' 31.80" 1.000E-01 0.500 F 0.189 -0.346 20.1 V 0.70 0.51 c 691 0.71 Yes Yes
2006UN O C H 2006-11-22.39732 1.000E-05 05:49:58.680 1.500E-01 0.500 F 0.066 -0.422 +29° 28' 04.20" 1.000E-01 0.500 F 0.189 0.906 21.7 V 0.70 0.18 c 691 2.10 Yes Yes
2001XV4 O C H 2006-11-22.39732 1.000E-05 05:49:05.490 1.500E-01 0.500 F 0.066 0.080 +28° 46' 17.10" 1.000E-01 0.500 F 0.189 -0.011 20.3 V 0.70 0.71 c 691 0.16 Yes Yes
2006UN O C H 2006-11-22.41481 1.000E-05 05:50:00.270 1.500E-01 0.500 F 0.066 1.801 +29° 27' 52.90" 1.000E-01 0.500 F 0.189 -0.188 21.9 V 0.70 0.38 c 691 3.27 No Yes
2001PM9 O C 2006-11-22.43984 1.000E-05 06:41:00.240 1.500E-01 0.612 F 0.153 0.165 +21° 16' 10.20" 1.000E-01 0.612 F 0.130 0.294 21.2 V 0.70 0.01 c 691 0.55 Yes Yes
2001PM9 O C 2006-11-22.44233 1.000E-05 06:41:00.120 1.500E-01 0.612 F 0.153 -0.204 +21° 16' 08.90" 1.000E-01 0.612 F 0.130 -0.202 21.6 V 0.70 0.41 c 691 0.47 Yes Yes
2001PM9 O C 2006-11-22.45725 1.000E-05 06:40:59.610 1.500E-01 0.612 F 0.153 0.508 +21° 16' 03.60" 1.000E-01 0.612 F 0.130 -0.671 21.3 V 0.70 0.11 c 691 1.38 Yes Yes
2001PM9 O C 2006-11-22.45974 1.000E-05 06:40:59.480 1.500E-01 0.612 F 0.153 -0.001 +21° 16' 03.20" 1.000E-01 0.612 F 0.130 -0.263 21.1 V 0.70 -0.09 c 691 0.43 Yes Yes
2001PM9 O C 2006-11-22.47466 1.000E-05 06:40:58.940 1.500E-01 0.612 F 0.153 0.285 +21° 15' 58.30" 1.000E-01 0.612 F 0.130 -0.304 21.5 V 0.70 0.31 c 691 0.68 Yes Yes
2001PM9 O C 2006-11-22.47714 1.000E-05 06:40:58.790 1.500E-01 0.612 F 0.153 -0.511 +21° 15' 57.80" 1.000E-01 0.612 F 0.130 0.005 21.3 V 0.70 0.11 c 691 0.84 Yes Yes
1998WM O C 2006-11-23.06914 1.000E-05 01:37:37.250 1.500E-01 0.500 F -0.033 -0.106 +11° 16' 41.10" 1.000E-01 0.500 F 0.220 -0.103 18.2 V 0.70 0.68 c 691 0.30 Yes Yes
1998WM O C 2006-11-23.08697 1.000E-05 01:37:34.980 1.500E-01 0.500 F -0.033 -0.121 +11° 16' 52.90" 1.000E-01 0.500 F 0.220 -0.080 18.2 V 0.70 0.68 c 691 0.29 Yes Yes
1998WM O C 2006-11-23.10486 1.000E-05 01:37:32.690 1.500E-01 0.500 F -0.033 -0.245 +11° 17' 04.70" 1.000E-01 0.500 F 0.220 -0.077 18.1 V 0.70 0.58 c 691 0.51 Yes Yes
2006WX29 O C 2006-11-23.15737 1.000E-05 03:45:25.610 1.500E-01 0.500 F 0.036 -0.304 +18° 13' 17.00" 1.000E-01 0.500 F 0.397 0.539 20.9 V 0.70 0.00 c 691 1.48 Yes Yes
2006WX29 O C 2006-11-23.17474 1.000E-05 03:45:29.290 1.500E-01 0.500 F 0.036 0.119 +18° 12' 49.80" 1.000E-01 0.500 F 0.397 -0.400 21.1 V 0.70 0.18 c 691 0.98 Yes Yes
2006WX29 O C 2006-11-23.19207 1.000E-05 03:45:32.770 1.500E-01 0.500 F 0.036 0.106 +18° 12' 23.80" 1.000E-01 0.500 F 0.397 0.063 21.2 V 0.70 0.27 c 691 0.29 Yes Yes
2000WS67 O C 2006-11-23.32808 1.000E-05 05:16:53.050 1.500E-01 0.500 F 0.038 -0.142 +20° 03' 23.50" 1.000E-01 0.500 F 0.218 0.122 20.6 V 0.70 0.29 c 691 0.38 Yes Yes
2000WS67 O C 2006-11-23.34550 1.000E-05 05:16:49.960 1.500E-01 0.500 F 0.038 -0.033 +20° 03' 30.30" 1.000E-01 0.500 F 0.218 0.120 20.6 V 0.70 0.29 c 691 0.25 Yes Yes
2000WS67 O C 2006-11-23.36291 1.000E-05 05:16:46.830 1.500E-01 0.500 F 0.038 -0.500 +20° 03' 37.10" 1.000E-01 0.500 F 0.218 0.159 20.5 V 0.70 0.19 c 691 1.06 Yes Yes
1999BJ8 O C t 2006-11-23.48643 1.000E-05 11:17:51.650 1.500E-01 0.500 F 0.456 -0.435 +12° 30' 43.00" 1.000E-01 0.500 F 0.347 0.610 20.9 V 0.70 0.23 c 691 1.50 Yes Yes
1999BJ8 O C t 2006-11-23.49887 1.000E-05 11:17:54.610 1.500E-01 0.500 F 0.456 0.338 +12° 30' 20.10" 1.000E-01 0.500 F 0.347 -0.580 21.2 V 0.70 0.53 c 691 1.34 Yes Yes
1999BJ8 O C t 2006-11-23.51133 1.000E-05 11:17:57.510 1.500E-01 0.500 F 0.456 0.186 +12° 29' 58.60" 1.000E-01 0.500 F 0.347 -0.322 20.8 V 0.70 0.13 c 691 0.74 Yes Yes
2006TT7 O C 2006-11-24.14304 1.000E-05 04:00:14.810 1.500E-01 0.500 F -0.087 -0.019 +14° 29' 33.70" 1.000E-01 0.500 F 0.252 -0.047 c 691 0.11 Yes No
2006UR217 O C 2006-11-24.14304 1.000E-05 03:57:13.810 1.500E-01 0.500 F 0.032 -0.143 +15° 45' 12.70" 1.000E-01 0.500 F 0.594 0.105 c 691 0.36 Yes No
2006TT7 O C 2006-11-24.16041 1.000E-05 04:00:13.590 1.500E-01 0.500 F -0.087 -0.177 +14° 30' 00.10" 1.000E-01 0.500 F 0.252 -0.239 c 691 0.63 Yes No
2006UR217 O C 2006-11-24.16041 1.000E-05 03:57:12.470 1.500E-01 0.500 F 0.032 -0.067 +15° 46' 32.80" 1.000E-01 0.500 F 0.594 0.074 c 691 0.20 Yes No
2006TT7 O C 2006-11-24.17782 1.000E-05 04:00:12.390 1.500E-01 0.500 F -0.087 0.132 +14° 30' 26.90" 1.000E-01 0.500 F 0.252 -0.055 c 691 0.31 Yes No
2006UR217 O C 2006-11-24.17782 1.000E-05 03:57:11.100 1.500E-01 0.500 F 0.032 -0.125 +15° 47' 52.90" 1.000E-01 0.500 F 0.594 -0.018 c 691 0.26 Yes No
2002HF8 O C H 2006-11-24.32840 1.000E-05 05:24:58.960 1.500E-01 0.500 F 0.000 -0.017 +26° 28' 59.70" 1.000E-01 0.500 F 0.232 -0.922 c 691 1.85 Yes No
2002HF8 O C H 2006-11-24.34567 1.000E-05 05:24:57.590 1.500E-01 0.500 F 0.000 1.232 +26° 29' 01.10" 1.000E-01 0.500 F 0.232 -0.470 c 691 2.69 Yes No
2002HF8 O C H 2006-11-24.36296 1.000E-05 05:24:56.020 1.500E-01 0.500 F 0.000 -0.173 +26° 29' 02.50" 1.000E-01 0.500 F 0.232 0.009 c 691 0.36 Yes No
1997WU22 O C 2006-11-24.38053 1.000E-05 05:49:10.310 1.500E-01 0.500 F 0.058 0.080 +26° 22' 27.90" 1.000E-01 0.500 F 0.243 -0.197 c 691 0.43 Yes No
1997WU22 O C 2006-11-24.39787 1.000E-05 05:49:08.640 1.500E-01 0.500 F 0.058 -0.017 +26° 22' 20.40" 1.000E-01 0.500 F 0.243 -0.022 c 691 0.06 Yes No
1997WU22 O C 2006-11-24.41523 1.000E-05 05:49:06.980 1.500E-01 0.500 F 0.058 0.047 +26° 22' 12.60" 1.000E-01 0.500 F 0.243 -0.098 c 691 0.22 Yes No
2001XS30 O C H 2006-11-24.44619 1.000E-05 06:09:04.480 1.500E-01 0.500 F 0.043 0.910 +16° 54' 57.90" 1.000E-01 0.500 F 0.346 -1.086 c 691 2.84 Yes No
Boreas O C 2006-11-24.49798 1.000E-05 11:01:28.640 1.500E-01 0.500 F 0.337 -0.352 +09° 58' 12.30" 1.000E-01 0.500 F 0.326 -0.196 c 691 0.81 Yes No
2003SD220 O C 2006-11-24.50040 1.000E-05 11:06:17.100 1.500E-01 0.500 F 0.446 -0.227 +10° 20' 42.40" 1.000E-01 0.500 F 0.214 0.222 c 691 0.63 Yes No
Boreas O C 2006-11-24.51041 1.000E-05 11:01:29.110 1.500E-01 0.500 F 0.337 -0.159 +09° 58' 08.80" 1.000E-01 0.500 F 0.326 -0.304 c 691 0.69 Yes No
2003SD220 O C 2006-11-24.51284 1.000E-05 11:06:19.880 1.500E-01 0.500 F 0.446 -0.004 +10° 20' 08.40" 1.000E-01 0.500 F 0.214 -0.080 c 691 0.16 Yes No
Boreas O C 2006-11-24.52284 1.000E-05 11:01:29.520 1.500E-01 0.500 F 0.337 -0.844 +09° 58' 05.30" 1.000E-01 0.500 F 0.326 -0.411 c 691 1.88 Yes No
2003SD220 O C 2006-11-24.52527 1.000E-05 11:06:22.620 1.500E-01 0.500 F 0.446 -0.281 +10° 19' 34.90" 1.000E-01 0.500 F 0.214 0.118 c 691 0.61 Yes No
2000WN10 O C t 2006-11-25.14767 1.000E-05 04:05:30.130 1.500E-01 0.500 F 0.094 -0.187 +25° 43' 09.30" 1.000E-01 0.500 F 0.441 -0.052 17.8 V 0.70 0.62 c 691 0.39 Yes Yes
2000WN10 O C H 2006-11-25.16503 1.000E-05 04:05:22.230 1.500E-01 0.500 F 0.094 0.598 +25° 44' 28.70" 1.000E-01 0.500 F 0.441 -0.630 c 691 1.74 Yes No
2000WN10 O C t 2006-11-25.18245 1.000E-05 04:05:14.280 1.500E-01 0.500 F 0.094 1.419 +25° 45' 48.70" 1.000E-01 0.500 F 0.441 -0.653 17.5 V 0.70 0.31 c 691 3.13 Yes Yes
2006WN1 O C 2006-11-25.37647 1.000E-05 05:39:33.220 1.500E-01 0.500 F 0.175 -0.037 +21° 20' 14.10" 1.000E-01 0.500 F 0.305 0.046 c 691 0.12 Yes No
Anteros O C 2006-11-25.37647 1.000E-05 05:39:07.050 1.500E-01 0.500 F 0.175 0.305 +21° 13' 47.70" 1.000E-01 0.500 F 0.305 0.033 c 691 0.62 Yes No
2006WN1 O C 2006-11-25.39386 1.000E-05 05:39:31.550 1.500E-01 0.500 F 0.175 -0.035 +21° 20' 09.20" 1.000E-01 0.500 F 0.305 -0.478 c 691 0.96 Yes No
Anteros O C 2006-11-25.39386 1.000E-05 05:39:05.420 1.500E-01 0.500 F 0.175 0.016 +21° 13' 37.70" 1.000E-01 0.500 F 0.305 -0.252 c 691 0.51 Yes No
2006WN1 O C 2006-11-25.39867 1.000E-05 05:39:31.080 1.500E-01 0.500 F 0.175 -0.149 +21° 20' 08.20" 1.000E-01 0.500 F 0.305 -0.261 c 691 0.60 Yes No
Anteros O C 2006-11-25.39867 1.000E-05 05:39:04.940 1.500E-01 0.500 F 0.175 -0.472 +21° 13' 35.00" 1.000E-01 0.500 F 0.305 -0.257 c 691 1.08 Yes No
2001XV4 O C H 2006-11-26.37962 1.000E-05 05:43:24.040 1.500E-01 0.500 F 0.059 0.202 +27° 45' 44.90" 1.000E-01 0.500 F 0.144 0.056 20.1 V 0.70 0.71 c 691 0.42 Yes Yes
2001XV4 O C H 2006-11-26.41449 1.000E-05 05:43:20.720 1.500E-01 0.500 F 0.059 0.181 +27° 45' 11.20" 1.000E-01 0.500 F 0.144 0.171 20.6 V 0.70 1.21 c 691 0.50 Yes Yes
2001PM9 O C H 2006-11-26.42722 1.000E-05 06:38:18.170 1.500E-01 0.500 F 0.114 -0.965 +20° 54' 19.10" 1.000E-01 0.500 F 0.196 -0.119 21.2 V 0.70 0.19 c 691 1.95 Yes Yes
2001PM9 O C H 2006-11-26.46201 1.000E-05 06:38:16.480 1.500E-01 0.500 F 0.114 -0.120 +20° 54' 06.80" 1.000E-01 0.500 F 0.196 -0.537 21.6 V 0.70 0.59 c 691 1.10 Yes Yes
2003SD220 O C 2006-11-26.48578 1.000E-05 11:13:56.840 1.500E-01 0.500 F 0.629 0.155 +08° 49' 10.60" 1.000E-01 0.500 F 0.133 -0.307 c 691 0.69 Yes No
2003SD220 O C 2006-11-26.49822 1.000E-05 11:13:59.650 1.500E-01 0.500 F 0.629 0.014 +08° 48' 35.90" 1.000E-01 0.500 F 0.133 -0.191 c 691 0.38 Yes No
2003SD220 O C 2006-11-26.51066 1.000E-05 11:14:02.450 1.500E-01 0.500 F 0.629 -0.207 +08° 48' 01.20" 1.000E-01 0.500 F 0.133 -0.053 c 691 0.43 Yes No
2000XG47 O C 2006-11-27.07174 1.000E-05 01:45:16.640 1.500E-01 0.500 F -0.007 0.344 +09° 53' 35.70" 1.000E-01 0.500 F 0.316 -0.023 c 691 0.69 Yes No
2000XG47 O C 2006-11-27.08963 1.000E-05 01:45:15.170 1.500E-01 0.500 F -0.007 0.522 +09° 53' 38.60" 1.000E-01 0.500 F 0.316 -0.224 c 691 1.14 Yes No
2000XG47 O C 2006-11-27.10753 1.000E-05 01:45:13.660 1.500E-01 0.500 F -0.007 0.155 +09° 53' 41.90" 1.000E-01 0.500 F 0.316 -0.020 c 691 0.31 Yes No
2006WE129 O C 2006-11-27.12899 1.000E-05 03:45:37.090 1.500E-01 0.500 F -0.069 -0.473 +14° 16' 14.90" 1.000E-01 0.500 F 0.389 0.209 20.1 V 0.70 -0.16 c 691 1.04 Yes Yes
2006WE129 O C 2006-11-27.13890 1.000E-05 03:45:34.910 1.500E-01 0.500 F -0.069 -1.009 +14° 16' 32.40" 1.000E-01 0.500 F 0.389 0.766 20.5 V 0.70 0.24 c 691 2.55 Yes Yes
2006WE129 O C 2006-11-27.14882 1.000E-05 03:45:32.790 1.500E-01 0.500 F -0.069 -0.602 +14° 16' 48.60" 1.000E-01 0.500 F 0.389 0.010 20.5 V 0.70 0.24 c 691 1.22 Yes Yes
2006WX3 O C 2006-11-27.22643 1.000E-05 04:25:55.620 1.500E-01 0.500 F -0.070 0.309 +20° 28' 31.10" 1.000E-01 0.500 F 0.272 0.075 c 691 0.65 Yes No
2006WX3 O C 2006-11-27.24374 1.000E-05 04:25:56.030 1.500E-01 0.500 F -0.070 0.116 +20° 27' 15.60" 1.000E-01 0.500 F 0.272 -0.316 c 691 0.70 Yes No
2006WX3 O C 2006-11-27.26104 1.000E-05 04:25:56.400 1.500E-01 0.500 F -0.070 -0.451 +20° 26' 00.20" 1.000E-01 0.500 F 0.272 -0.608 c 691 1.55 Yes No
2000WS67 O C 2006-11-27.33723 1.000E-05 05:05:08.430 1.500E-01 0.500 F 0.124 -0.266 +20° 27' 52.60" 1.000E-01 0.500 F 0.153 -0.032 c 691 0.54 Yes No
2000WS67 O C 2006-11-27.35463 1.000E-05 05:05:05.320 1.500E-01 0.500 F 0.124 0.092 +20° 27' 58.50" 1.000E-01 0.500 F 0.153 -0.093 c 691 0.26 Yes No
2000WS67 O C 2006-11-27.37204 1.000E-05 05:05:02.170 1.500E-01 0.500 F 0.124 -0.096 +20° 28' 04.40" 1.000E-01 0.500 F 0.153 -0.120 c 691 0.31 Yes No
2006SG77 O C 2006-12-01.13090 1.000E-05 03:39:03.970 1.500E-01 0.500 F -0.227 0.037 +14° 15' 19.90" 1.000E-01 0.500 F 0.462 -0.124 19.7 V 0.70 0.70 c 691 0.27 Yes Yes
2006SG77 O C 2006-12-01.14082 1.000E-05 03:39:05.180 1.500E-01 0.500 F -0.227 0.389 +14° 15' 08.20" 1.000E-01 0.500 F 0.462 -0.076 19.5 V 0.70 0.50 c 691 0.83 Yes Yes
2006SG77 O C 2006-12-01.15075 1.000E-05 03:39:06.320 1.500E-01 0.500 F -0.227 -0.214 +14° 14' 56.20" 1.000E-01 0.500 F 0.462 -0.304 19.6 V 0.70 0.60 c 691 0.77 Yes Yes
2006WH1 O C 2006-12-01.16662 1.000E-05 03:56:52.960 1.500E-01 0.500 F -0.093 -0.163 +18° 14' 20.10" 1.000E-01 0.500 F 0.519 -0.040 17.6 V 0.70 0.46 c 691 0.34 Yes Yes
2006WH1 O C 2006-12-01.18393 1.000E-05 03:56:51.080 1.500E-01 0.500 F -0.093 -0.152 +18° 13' 54.00" 1.000E-01 0.500 F 0.519 -0.140 17.4 V 0.70 0.26 c 691 0.42 Yes Yes
2006WH1 O C 2006-12-01.20125 1.000E-05 03:56:49.170 1.500E-01 0.500 F -0.093 -0.209 +18° 13' 27.90" 1.000E-01 0.500 F 0.519 -0.049 17.5 V 0.70 0.36 c 691 0.44 Yes Yes
2000WS67 O C H 2006-12-01.34647 1.000E-05 04:53:22.700 1.500E-01 0.500 F 0.054 0.272 +20° 49' 11.60" 1.000E-01 0.500 F 0.429 -0.526 c 691 1.19 Yes No
2000WS67 O C H 2006-12-01.36738 1.000E-05 04:53:19.000 1.500E-01 0.500 F 0.054 0.654 +20° 49' 17.60" 1.000E-01 0.500 F 0.429 -0.586 21.2 V 0.70 1.14 c 691 1.77 Yes Yes
2000WS67 O C H 2006-12-01.38820 1.000E-05 04:53:15.250 1.500E-01 0.500 F 0.054 0.063 +20° 49' 24.10" 1.000E-01 0.500 F 0.429 -0.068 20.7 V 0.70 0.64 c 691 0.19 Yes Yes
Apollo O C 2006-12-09.52126 1.000E-05 12:52:05.700 1.500E-01 0.500 F 0.497 -0.199 -00° 50' 11.00" 1.000E-01 0.500 F 0.364 0.525 21.0 V 0.70 0.28 c 691 1.12 Yes Yes
Apollo O C 2006-12-09.53366 1.000E-05 12:52:06.820 1.500E-01 0.500 F 0.497 -0.542 -00° 50' 18.50" 1.000E-01 0.500 F 0.364 0.027 21.1 V 0.70 0.38 c 691 1.08 Yes Yes
Apollo O C 2006-12-09.54606 1.000E-05 12:52:07.990 1.500E-01 0.500 F 0.497 -0.124 -00° 50' 25.90" 1.000E-01 0.500 F 0.364 -0.372 21.2 V 0.70 0.48 c 691 0.78 Yes Yes
2006XW O C 2006-12-10.14300 1.000E-05 05:36:09.200 1.500E-01 0.500 F 0.019 0.149 +26° 27' 11.70" 1.000E-01 0.500 F 0.044 0.132 20.5 V 0.70 0.64 c 691 0.41 Yes Yes
1997WU22 O C 2006-12-10.15050 1.000E-05 05:20:12.480 1.500E-01 0.500 F -0.041 0.005 +23° 58' 40.20" 1.000E-01 0.500 F 0.196 0.104 c 691 0.21 Yes No
2006XW O C 2006-12-10.16038 1.000E-05 05:36:05.790 1.500E-01 0.500 F 0.019 0.282 +26° 28' 08.20" 1.000E-01 0.500 F 0.044 0.012 20.3 V 0.70 0.44 c 691 0.58 Yes Yes
1997WU22 O C 2006-12-10.16789 1.000E-05 05:20:10.290 1.500E-01 0.500 F -0.041 -0.366 +23° 58' 29.00" 1.000E-01 0.500 F 0.196 -0.064 c 691 0.74 Yes No
2006XW O C 2006-12-10.17777 1.000E-05 05:36:02.320 1.500E-01 0.500 F 0.019 0.182 +26° 29' 04.80" 1.000E-01 0.500 F 0.044 0.109 20.1 V 0.70 0.24 c 691 0.44 Yes Yes
1997WU22 O C 2006-12-10.18527 1.000E-05 05:20:08.150 1.500E-01 0.500 F -0.041 0.006 +23° 58' 18.10" 1.000E-01 0.500 F 0.196 0.087 c 691 0.17 Yes No
2006XX O C 2006-12-10.27940 1.000E-05 06:52:13.800 1.500E-01 0.500 F -0.003 -0.347 +22° 01' 48.40" 1.000E-01 0.500 F 0.309 -0.397 20.4 V 0.70 0.42 c 691 1.14 Yes Yes
2006XX O C 2006-12-10.29678 1.000E-05 06:52:18.130 1.500E-01 0.500 F -0.003 -0.229 +22° 02' 45.40" 1.000E-01 0.500 F 0.309 -0.180 20.5 V 0.70 0.52 c 691 0.63 Yes Yes
2006XX O C 2006-12-10.31417 1.000E-05 06:52:22.440 1.500E-01 0.500 F -0.003 0.024 +22° 03' 41.80" 1.000E-01 0.500 F 0.309 -0.277 20.3 V 0.70 0.31 c 691 0.59 Yes Yes
1997AP10 O C 2006-12-11.22992 1.000E-05 06:08:02.670 1.500E-01 0.500 F -0.047 0.239 +29° 16' 25.10" 1.000E-01 0.500 F 0.231 -0.135 20.7 V 0.70 1.48 c 691 0.55 Yes Yes
1997AP10 O C 2006-12-11.24768 1.000E-05 06:07:59.990 1.500E-01 0.500 F -0.047 -0.606 +29° 16' 23.20" 1.000E-01 0.500 F 0.231 -0.309 19.4 V 0.70 0.18 c 691 1.36 Yes Yes
1997AP10 O C 2006-12-11.26504 1.000E-05 06:07:57.490 1.500E-01 0.500 F -0.047 0.182 +29° 16' 22.50" 1.000E-01 0.500 F 0.231 0.717 20.3 V 0.70 1.08 c 691 1.48 Yes Yes
2000AG205 O C 2006-12-11.29917 1.000E-05 06:26:22.950 1.500E-01 0.500 F -0.058 -0.201 +28° 32' 09.70" 1.000E-01 0.500 F 0.352 0.143 19.8 V 0.70 0.16 c 691 0.49 Yes Yes
2000AG205 O C 2006-12-11.31657 1.000E-05 06:26:21.940 1.500E-01 0.500 F -0.058 -0.576 +28° 31' 40.20" 1.000E-01 0.500 F 0.352 -0.299 20.3 V 0.70 0.66 c 691 1.34 Yes Yes
2000AG205 O C 2006-12-11.33397 1.000E-05 06:26:21.000 1.500E-01 0.500 F -0.058 0.030 +28° 31' 11.30" 1.000E-01 0.500 F 0.352 -0.037 19.6 V 0.70 -0.04 c 691 0.12 Yes Yes
2001WC47 O C 2006-12-11.34543 1.000E-05 07:06:29.080 1.500E-01 0.500 F 0.112 -0.218 +21° 51' 15.30" 1.000E-01 0.500 F 0.239 -0.147 19.4 V 0.70 0.52 c 691 0.53 Yes Yes
2001WC47 O C 2006-12-11.36283 1.000E-05 07:06:28.270 1.500E-01 0.500 F 0.112 -0.063 +21° 51' 21.70" 1.000E-01 0.500 F 0.239 0.016 19.2 V 0.70 0.32 c 691 0.13 Yes Yes
2001WC47 O C 2006-12-11.38030 1.000E-05 07:06:27.440 1.500E-01 0.500 F 0.112 -0.096 +21° 51' 27.80" 1.000E-01 0.500 F 0.239 -0.077 19.3 V 0.70 0.42 c 691 0.25 Yes Yes
2006SH7 O C 2006-12-11.40678 1.000E-05 07:45:23.150 1.500E-01 0.500 F 0.116 0.181 +21° 57' 43.30" 1.000E-01 0.500 F 0.432 -0.139 18.1 V 0.70 0.41 c 691 0.46 Yes Yes
Itokawa O C 2006-12-11.40678 1.000E-05 07:43:05.950 1.500E-01 0.500 F 0.064 0.172 +22° 55' 38.80" 1.000E-01 0.500 F 0.502 -0.496 20.5 V 0.70 0.55 c 691 1.05 Yes Yes
2006SH7 O C 2006-12-11.42413 1.000E-05 07:45:25.690 1.500E-01 0.500 F 0.116 0.127 +21° 58' 09.80" 1.000E-01 0.500 F 0.432 -0.215 18.1 V 0.70 0.41 c 691 0.51 Yes Yes
Itokawa O C 2006-12-11.42413 1.000E-05 07:43:05.070 1.500E-01 0.500 F 0.064 -0.110 +22° 55' 43.90" 1.000E-01 0.500 F 0.502 -0.145 20.3 V 0.70 0.35 c 691 0.36 Yes Yes
2006SH7 O C 2006-12-11.44148 1.000E-05 07:45:28.280 1.500E-01 0.500 F 0.116 0.758 +21° 58' 35.00" 1.000E-01 0.500 F 0.432 -1.409 17.9 V 0.70 0.21 c 691 3.17 No Yes
Itokawa O C 2006-12-11.44148 1.000E-05 07:43:04.200 1.500E-01 0.500 F 0.064 -0.248 +22° 55' 48.60" 1.000E-01 0.500 F 0.502 -0.143 20.3 V 0.70 0.35 c 691 0.57 Yes Yes
2004QE20 O C H 2006-12-11.46971 1.000E-05 07:50:03.560 1.500E-01 0.500 F 0.237 -0.990 +20° 54' 27.70" 1.000E-01 0.500 F 0.432 -0.292 21.3 V 0.70 0.18 c 691 2.08 Yes Yes
2004QE20 O C H 2006-12-11.48706 1.000E-05 07:50:02.290 1.500E-01 0.500 F 0.237 -0.071 +20° 54' 21.20" 1.000E-01 0.500 F 0.432 -0.892 20.8 V 0.70 -0.32 c 691 1.80 Yes Yes
2004QE20 O C H 2006-12-11.50440 1.000E-05 07:50:01.000 1.500E-01 0.500 F 0.237 0.509 +20° 54' 15.50" 1.000E-01 0.500 F 0.432 -0.651 c 691 1.66 Yes No
2004BE11 O C H 2006-12-11.51346 1.000E-05 12:34:07.190 1.500E-01 0.500 F 0.663 0.553 -05° 45' 15.80" 1.000E-01 0.500 F 0.404 -0.545 20.8 V 0.70 -0.58 c 691 1.56 Yes Yes
2006VY13 O C 2006-12-11.51590 1.000E-05 12:44:36.680 1.500E-01 0.500 F 0.271 -0.153 -04° 29' 36.90" 1.000E-01 0.500 F 0.320 -0.092 20.5 V 0.70 0.72 c 691 0.36 Yes Yes
2004BE11 O C H 2006-12-11.52592 1.000E-05 12:34:10.220 1.500E-01 0.500 F 0.663 -0.480 -05° 45' 21.00" 1.000E-01 0.500 F 0.404 0.784 20.7 V 0.70 -0.68 c 691 1.84 Yes Yes
2006VY13 O C 2006-12-11.52835 1.000E-05 12:44:39.500 1.500E-01 0.500 F 0.271 -0.031 -04° 29' 51.30" 1.000E-01 0.500 F 0.320 -0.198 20.3 V 0.70 0.52 c 691 0.40 Yes Yes
2004BE11 O C H 2006-12-11.53837 1.000E-05 12:34:13.480 1.500E-01 0.500 F 0.663 1.979 -05° 45' 28.90" 1.000E-01 0.500 F 0.404 -0.597 20.6 V 0.70 -0.78 c 691 4.12 No Yes
2006VY13 O C 2006-12-11.54079 1.000E-05 12:44:42.300 1.500E-01 0.500 F 0.271 -0.153 -04° 30' 05.20" 1.000E-01 0.500 F 0.320 0.180 20.1 V 0.70 0.32 c 691 0.48 Yes Yes
2001XV4 O C 2006-12-12.22196 1.000E-05 05:14:21.380 1.500E-01 0.500 F -0.045 0.068 +22° 33' 51.20" 1.000E-01 0.500 F 0.237 -0.079 19.0 V 0.70 0.60 c 691 0.21 Yes Yes
2006XG2 O C 2006-12-12.22683 1.000E-05 05:27:27.540 1.500E-01 0.500 F 0.033 0.145 +22° 40' 07.70" 1.000E-01 0.500 F 0.220 -0.194 20.6 V 0.70 0.57 c 691 0.49 Yes Yes
2001XV4 O C 2006-12-12.23928 1.000E-05 05:14:19.200 1.500E-01 0.500 F -0.045 0.150 +22° 33' 27.40" 1.000E-01 0.500 F 0.237 -0.072 18.9 V 0.70 0.50 c 691 0.34 Yes Yes
2006XG2 O C 2006-12-12.24408 1.000E-05 05:27:24.760 1.500E-01 0.500 F 0.033 -0.388 +22° 40' 35.70" 1.000E-01 0.500 F 0.220 0.337 20.8 V 0.70 0.77 c 691 1.04 Yes Yes
2001XV4 O C 2006-12-12.25653 1.000E-05 05:14:17.010 1.500E-01 0.500 F -0.045 0.013 +22° 33' 03.60" 1.000E-01 0.500 F 0.237 -0.120 19.0 V 0.70 0.60 c 691 0.24 Yes Yes
2006XG2 O C 2006-12-12.26139 1.000E-05 05:27:22.020 1.500E-01 0.500 F 0.033 -0.161 +22° 41' 03.00" 1.000E-01 0.500 F 0.220 0.133 20.6 V 0.70 0.57 c 691 0.42 Yes Yes
2006XY2 O C 2006-12-13.31880 1.000E-05 07:10:32.590 1.500E-01 0.500 F 0.207 -0.364 +23° 46' 49.60" 1.000E-01 0.500 F 0.332 0.576 20.8 V 0.70 0.24 c 691 1.41 Yes Yes
2006XX O C 2006-12-13.31880 1.000E-05 07:04:54.040 1.500E-01 0.500 F 0.245 0.084 +24° 28' 47.00" 1.000E-01 0.500 F 0.359 -0.406 19.9 V 0.70 -0.27 c 691 0.87 Yes Yes
2006XY2 O C 2006-12-13.33613 1.000E-05 07:10:32.470 1.500E-01 0.500 F 0.207 -0.039 +23° 45' 38.70" 1.000E-01 0.500 F 0.332 0.318 20.6 V 0.70 0.04 c 691 0.67 Yes Yes
2006XX O C 2006-12-13.33613 1.000E-05 07:04:57.580 1.500E-01 0.500 F 0.245 0.945 +24° 29' 34.10" 1.000E-01 0.500 F 0.359 0.262 20.4 V 0.70 0.23 c 691 2.06 Yes Yes
2006XY2 O C 2006-12-13.35346 1.000E-05 07:10:32.320 1.500E-01 0.500 F 0.207 0.010 +23° 44' 28.00" 1.000E-01 0.500 F 0.332 0.459 20.7 V 0.70 0.14 c 691 0.95 Yes Yes
2006XX O C 2006-12-13.35346 1.000E-05 07:05:01.000 1.500E-01 0.500 F 0.245 0.411 +24° 30' 20.00" 1.000E-01 0.500 F 0.359 0.070 20.3 V 0.70 0.13 c 691 0.87 Yes Yes
1993DQ1 O C 2006-12-13.47270 1.000E-05 08:21:03.360 1.500E-01 0.500 F 0.196 0.045 +25° 22' 54.00" 1.000E-01 0.500 F 0.465 -0.101 21.5 V 0.70 0.21 c 691 0.22 Yes Yes
Golombek O C 2006-12-13.48507 1.000E-05 08:24:45.870 1.500E-01 0.500 F 0.346 0.334 +23° 51' 24.80" 1.000E-01 0.500 F 0.452 -0.063 21.0 V 0.70 0.11 c 691 0.68 Yes Yes
1993DQ1 O C 2006-12-13.49003 1.000E-05 08:21:02.560 1.500E-01 0.500 F 0.196 0.380 +25° 22' 56.10" 1.000E-01 0.500 F 0.465 -0.209 21.0 V 0.70 -0.29 c 691 0.87 Yes Yes
Golombek O C 2006-12-13.50241 1.000E-05 08:24:45.120 1.500E-01 0.500 F 0.346 -0.287 +23° 51' 26.30" 1.000E-01 0.500 F 0.452 -0.362 21.3 V 0.70 0.41 c 691 0.92 Yes Yes
1993DQ1 O C 2006-12-13.50737 1.000E-05 08:21:01.780 1.500E-01 0.500 F 0.196 0.984 +25° 22' 58.20" 1.000E-01 0.500 F 0.465 -0.302 21.6 V 0.70 0.31 c 691 2.06 Yes Yes
Golombek O C 2006-12-13.51972 1.000E-05 08:24:44.470 1.500E-01 0.500 F 0.346 0.437 +23° 51' 27.70" 1.000E-01 0.500 F 0.452 -0.744 21.2 V 0.70 0.31 c 691 1.73 Yes Yes
2005UB O C H 2006-12-14.29149 1.000E-05 06:41:03.600 1.500E-01 0.500 F 0.152 -0.063 +21° 27' 00.90" 1.000E-01 0.500 F 0.130 -0.324 21.5 V 0.70 -0.02 c 691 0.66 Yes Yes
2005UB O C H 2006-12-14.30887 1.000E-05 06:41:02.230 1.500E-01 0.500 F 0.152 0.362 +21° 26' 58.50" 1.000E-01 0.500 F 0.130 -0.472 c 691 1.20 Yes No
2005UB O C H 2006-12-14.32627 1.000E-05 06:41:00.870 1.500E-01 0.500 F 0.152 0.964 +21° 26' 56.70" 1.000E-01 0.500 F 0.130 -0.004 c 691 1.94 Yes No
2001US16 O C H 2006-12-14.35089 1.000E-05 07:00:53.420 1.500E-01 0.500 F 0.178 -0.155 +18° 07' 17.60" 1.000E-01 0.500 F 0.294 -0.635 c 691 1.31 Yes No
2002KL6 O C H 2006-12-14.35590 1.000E-05 06:54:42.680 1.500E-01 0.500 F 0.191 -0.092 +18° 39' 23.90" 1.000E-01 0.500 F 0.294 -1.017 c 691 2.04 Yes No
1997AP10 O C H 2006-12-15.21254 1.000E-05 05:58:26.160 1.500E-01 0.500 F -0.143 0.443 +29° 07' 13.70" 1.000E-01 0.500 F 0.225 -0.321 19.6 V 0.70 0.47 c 691 1.09 Yes Yes
1997AP10 O C H 2006-12-15.22987 1.000E-05 05:58:23.570 1.500E-01 0.500 F -0.143 -0.132 +29° 07' 11.10" 1.000E-01 0.500 F 0.225 -0.259 20.6 V 0.70 1.47 c 691 0.58 Yes Yes
1997AP10 O C H 2006-12-15.24719 1.000E-05 05:58:21.080 1.500E-01 0.500 F -0.143 0.628 +29° 07' 08.10" 1.000E-01 0.500 F 0.225 -0.561 c 691 1.68 Yes No
2006XE2 O C t 2006-12-15.28713 1.000E-05 06:40:44.340 1.500E-01 0.500 F 0.055 1.117 +30° 21' 49.40" 1.000E-01 0.500 F 0.186 -0.393 19.7 V 0.70 0.69 c 691 2.44 Yes Yes
2006XH1 O C H 2006-12-15.29209 1.000E-05 06:43:10.290 1.500E-01 0.500 F 0.052 -0.113 +28° 23' 55.40" 1.000E-01 0.500 F 0.141 0.041 20.2 V 0.70 0.86 c 691 0.24 Yes Yes
2006XE2 O C t 2006-12-15.30451 1.000E-05 06:40:36.560 1.500E-01 0.500 F 0.055 0.566 +30° 19' 55.40" 1.000E-01 0.500 F 0.186 -0.688 19.5 V 0.70 0.49 c 691 1.82 Yes Yes
2006XH1 O C H 2006-12-15.30947 1.000E-05 06:43:10.970 1.500E-01 0.500 F 0.052 0.098 +28° 23' 35.00" 1.000E-01 0.500 F 0.141 -0.348 19.7 V 0.70 0.36 c 691 0.73 Yes Yes
2001WC47 O C 2006-12-15.32206 1.000E-05 07:03:17.690 1.500E-01 0.500 F 0.112 0.047 +22° 16' 31.40" 1.000E-01 0.500 F 0.239 0.221 c 691 0.45 Yes No
1998XS16 O C 2006-12-15.32950 1.000E-05 07:10:33.340 1.500E-01 0.500 F 0.153 -0.169 +21° 27' 11.30" 1.000E-01 0.500 F 0.238 -0.108 c 691 0.40 Yes No
2006XY2 O C H 2006-12-15.32950 1.000E-05 07:10:38.860 1.500E-01 0.500 F 0.005 0.020 +21° 25' 25.70" 1.000E-01 0.500 F 0.255 -0.146 20.7 V 0.70 0.25 c 691 0.30 Yes Yes
2001WC47 O C 2006-12-15.33944 1.000E-05 07:03:16.570 1.500E-01 0.500 F 0.112 -0.022 +22° 16' 38.40" 1.000E-01 0.500 F 0.239 -0.105 c 691 0.21 Yes No
1998XS16 O C 2006-12-15.34688 1.000E-05 07:10:30.750 1.500E-01 0.500 F 0.153 -0.190 +21° 26' 58.30" 1.000E-01 0.500 F 0.238 -0.167 c 691 0.51 Yes No
2006XY2 O C H 2006-12-15.34688 1.000E-05 07:10:38.650 1.500E-01 0.500 F 0.005 1.095 +21° 24' 12.20" 1.000E-01 0.500 F 0.255 1.289 c 691 3.32 No No
2001WC47 O C 2006-12-15.35682 1.000E-05 07:03:15.460 1.500E-01 0.500 F 0.112 0.107 +22° 16' 45.60" 1.000E-01 0.500 F 0.239 -0.158 c 691 0.38 Yes No
1998XS16 O C 2006-12-15.36427 1.000E-05 07:10:28.170 1.500E-01 0.500 F 0.153 -0.019 +21° 26' 45.50" 1.000E-01 0.500 F 0.238 0.022 c 691 0.06 Yes No
2006XY2 O C H 2006-12-15.36427 1.000E-05 07:10:38.310 1.500E-01 0.500 F 0.005 0.453 +21° 22' 56.60" 1.000E-01 0.500 F 0.255 0.857 20.9 V 0.70 0.45 c 691 1.98 Yes Yes
2006XA3 O C t 2006-12-15.43627 1.000E-05 07:57:00.650 1.500E-01 0.500 F 0.217 0.300 +21° 25' 00.10" 1.000E-01 0.500 F 0.324 -1.119 20.9 V 0.70 -0.04 c 691 2.45 Yes Yes
2004QE20 O C H 2006-12-15.43876 1.000E-05 07:44:50.560 1.500E-01 0.500 F 0.232 1.037 +20° 33' 08.10" 1.000E-01 0.500 F 0.592 -0.454 c 691 2.28 Yes No
2004QE20 O C H 2006-12-15.45609 1.000E-05 07:44:48.890 1.500E-01 0.500 F 0.232 -0.299 +20° 33' 03.00" 1.000E-01 0.500 F 0.592 0.055 20.9 V 0.70 -0.11 c 691 0.61 Yes Yes
2006XA3 O C t 2006-12-15.47094 1.000E-05 07:56:51.280 1.500E-01 0.500 F 0.217 0.728 +21° 28' 04.00" 1.000E-01 0.500 F 0.324 -1.252 21.4 V 0.70 0.45 c 691 3.08 Yes Yes

[1-200] [201-400] [401-600] [601-800] [801-1000] [1001-1200] [1201-1400] [1401-1600] [1601-1800] [1801-2000] [2001-2200] [2201-2400] [2401-2600] [2601-2800] [2801-3000] [3001-3200] [3201-3400] [3401-3600] [3601-3800] [3801-4000] [4001-4200] [4201-4400] [4401-4600] [4601-4800] [4801-5000] [5001-5200] [5201-5400] [5401-5600] [5601-5800] [5801-6000] [6001-6200] [6201-6400] [6401-6600] [6601-6800] [6801-7000] [7001-7200] [7201-7400] [7401-7600] [7601-7800] [7801-8000] [8001-8200] [8201-8400] [8401-8600] [8601-8800] [8801-9000] [9001-9200] [9201-9400] [9401-9600] [9601-9800] [9801-10000] [10001-10200] [10201-10400] [10401-10600] [10601-10800] [10801-11000] [11001-11200] [11201-11400] [11401-11600] [11601-11800] [11801-12000] [12001-12200] [12201-12400] [12401-12600] [12601-12800] [12801-13000] [13001-13200] [13201-13400] [13401-13600] [13601-13800] [13801-14000] [14001-14200] [14201-14400] [14401-14600] [14601-14800] [14801-15000] [15001-15200] [15201-15400] [15401-15600] [15601-15800] [15801-16000] [16001-16200] [16201-16400] [16401-16600] [16601-16800] [16801-17000] [17001-17200] [17201-17400] [17401-17600] [17601-17800] [17801-18000] [18001-18200] [18201-18400] [18401-18600] [18601-18800] [18801-19000] [19001-19200] [19201-19400] [19401-19600] [19601-19800] [19801-20000] [20001-20200] [20201-20400] [20401-20600] [20601-20800] [20801-21000] [21001-21200] [21201-21400] [21401-21600] [21601-21800] [21801-22000] [22001-22200] [22201-22400] [22401-22600] [22601-22800] [22801-23000] [23001-23200] [23201-23400] [23401-23600] [23601-23800] [23801-24000] [24001-24200] [24201-24400] [24401-24600] [24601-24800] [24801-25000] [25001-25200] [25201-25400] [25401-25600] [25601-25800] [25801-26000] [26001-26200] [26201-26400] [26401-26600] [26601-26800] [26801-27000] [27001-27200] [27201-27400] [27401-27600] [27601-27800] [27801-28000] [28001-28200] [28201-28400] [28401-28600] [28601-28800] [28801-29000] [29001-29200] [29201-29400] [29401-29600] [29601-29800] [29801-30000] [30001-30200] [30201-30400] [30401-30600] [30601-30800] [30801-31000] [31001-31200] [31201-31400] [31401-31600] [31601-31800] [31801-32000] [32001-32200] [32201-32400] [32401-32600] [32601-32800] [32801-33000] [33001-33200] [33201-33400] [33401-33600] [33601-33800] [33801-34000] [34001-34200] [34201-34400] [34401-34600] [34601-34800] [34801-35000] [35001-35200] [35201-35400] [35401-35600] [35601-35800] [35801-36000] [36001-36200] [36201-36400] [36401-36600] [36601-36800] [36801-37000] [37001-37200] [37201-37400] [37401-37600] [37601-37800] [37801-38000] [38001-38200] [38201-38400] [38401-38600] [38601-38800] [38801-39000] [39001-39200] [39201-39400] [39401-39600] [39601-39800] [39801-40000] [40001-40200] [40201-40400] [40401-40600] [40601-40800] [40801-41000] [41001-41200] [41201-41400] [41401-41600] [41601-41800] [41801-42000] [42001-42200] [42201-42400] [42401-42600] [42601-42800] [42801-43000] [43001-43200] [43201-43400] [43401-43600] [43601-43800] [43801-44000] [44001-44200] [44201-44400] [44401-44600] [44601-44800] [44801-45000] [45001-45200] [45201-45400] [45401-45600] [45601-45800] [45801-46000] [46001-46200] [46201-46400] [46401-46600] [46601-46800] [46801-47000] [47001-47200] [47201-47400] [47401-47600] [47601-47800] [47801-48000] [48001-48200] [48201-48400] [48401-48600] [48601-48800] [48801-49000] [49001-49200] [49201-49400] [49401-49600] [49601-49800] [49801-50000] [50001-50200] [50201-50388]